sensor_id;sensor_type;location;lat;lon;timestamp;temperature;humidity
33994;DHT22;20673;48.980;8.138;2023-06-05T00:02:04;14.30;99.90
33994;DHT22;20673;48.980;8.138;2023-06-05T00:04:30;14.40;99.90
33994;DHT22;20673;48.980;8.138;2023-06-05T00:06:56;14.40;99.90
33994;DHT22;20673;48.980;8.138;2023-06-05T00:09:23;14.50;99.90
33994;DHT22;20673;48.980;8.138;2023-06-05T00:11:49;14.50;99.90
33994;DHT22;20673;48.980;8.138;2023-06-05T00:14:15;14.50;99.90
33994;DHT22;20673;48.980;8.138;2023-06-05T00:16:42;14.50;99.90
33994;DHT22;20673;48.980;8.138;2023-06-05T00:19:08;14.60;99.90
33994;DHT22;20673;48.980;8.138;2023-06-05T00:21:34;14.60;99.90
33994;DHT22;20673;48.980;8.138;2023-06-05T00:24:00;14.60;99.90
33994;DHT22;20673;48.980;8.138;2023-06-05T00:26:26;14.60;99.90
33994;DHT22;20673;48.980;8.138;2023-06-05T00:28:52;14.60;99.90
33994;DHT22;20673;48.980;8.138;2023-06-05T00:31:18;14.60;99.90
33994;DHT22;20673;48.980;8.138;2023-06-05T00:33:48;14.60;99.90
33994;DHT22;20673;48.980;8.138;2023-06-05T00:36:14;14.60;99.90
33994;DHT22;20673;48.980;8.138;2023-06-05T00:38:40;14.60;99.90
33994;DHT22;20673;48.980;8.138;2023-06-05T00:41:06;14.70;99.90
33994;DHT22;20673;48.980;8.138;2023-06-05T00:43:32;14.70;99.90
33994;DHT22;20673;48.980;8.138;2023-06-05T00:46:01;14.60;99.90
33994;DHT22;20673;48.980;8.138;2023-06-05T00:48:29;14.70;99.90
33994;DHT22;20673;48.980;8.138;2023-06-05T00:50:57;14.60;99.90
33994;DHT22;20673;48.980;8.138;2023-06-05T00:53:24;14.50;99.90
33994;DHT22;20673;48.980;8.138;2023-06-05T00:55:51;14.50;99.90
33994;DHT22;20673;48.980;8.138;2023-06-05T00:58:17;14.50;99.90
33994;DHT22;20673;48.980;8.138;2023-06-05T01:00:44;14.50;99.90
33994;DHT22;20673;48.980;8.138;2023-06-05T01:03:12;14.50;99.90
33994;DHT22;20673;48.980;8.138;2023-06-05T01:05:38;14.50;99.90
33994;DHT22;20673;48.980;8.138;2023-06-05T01:08:05;14.50;99.90
33994;DHT22;20673;48.980;8.138;2023-06-05T01:10:33;14.50;99.90
33994;DHT22;20673;48.980;8.138;2023-06-05T01:13:06;14.50;99.90
33994;DHT22;20673;48.980;8.138;2023-06-05T01:15:38;14.50;99.90
33994;DHT22;20673;48.980;8.138;2023-06-05T01:18:05;14.50;99.90
33994;DHT22;20673;48.980;8.138;2023-06-05T01:20:34;14.50;99.90
33994;DHT22;20673;48.980;8.138;2023-06-05T01:23:03;14.50;99.90
33994;DHT22;20673;48.980;8.138;2023-06-05T01:25:32;14.40;99.90
33994;DHT22;20673;48.980;8.138;2023-06-05T01:28:10;14.40;99.90
33994;DHT22;20673;48.980;8.138;2023-06-05T01:30:55;14.40;99.90
33994;DHT22;20673;48.980;8.138;2023-06-05T01:33:36;14.30;99.90
33994;DHT22;20673;48.980;8.138;2023-06-05T01:36:13;14.30;99.90
33994;DHT22;20673;48.980;8.138;2023-06-05T01:38:41;14.20;99.90
33994;DHT22;20673;48.980;8.138;2023-06-05T01:41:10;14.20;99.90
33994;DHT22;20673;48.980;8.138;2023-06-05T01:43:38;14.20;99.90
33994;DHT22;20673;48.980;8.138;2023-06-05T01:46:06;14.10;99.90
33994;DHT22;20673;48.980;8.138;2023-06-05T01:48:33;14.10;99.90
33994;DHT22;20673;48.980;8.138;2023-06-05T01:51:01;14.00;99.90
33994;DHT22;20673;48.980;8.138;2023-06-05T01:53:28;14.00;99.90
33994;DHT22;20673;48.980;8.138;2023-06-05T01:55:55;13.90;99.90
33994;DHT22;20673;48.980;8.138;2023-06-05T01:58:26;13.90;99.90
33994;DHT22;20673;48.980;8.138;2023-06-05T02:00:53;13.90;99.90
33994;DHT22;20673;48.980;8.138;2023-06-05T02:03:21;13.90;99.90
33994;DHT22;20673;48.980;8.138;2023-06-05T02:05:48;13.80;99.90
33994;DHT22;20673;48.980;8.138;2023-06-05T02:08:14;13.80;99.90
33994;DHT22;20673;48.980;8.138;2023-06-05T02:10:42;13.80;99.90
33994;DHT22;20673;48.980;8.138;2023-06-05T02:13:13;13.70;99.90
33994;DHT22;20673;48.980;8.138;2023-06-05T02:15:41;13.70;99.90
33994;DHT22;20673;48.980;8.138;2023-06-05T02:18:07;13.70;99.90
33994;DHT22;20673;48.980;8.138;2023-06-05T02:20:34;13.70;99.90
33994;DHT22;20673;48.980;8.138;2023-06-05T02:23:02;13.60;99.90
33994;DHT22;20673;48.980;8.138;2023-06-05T02:25:30;13.50;99.90
33994;DHT22;20673;48.980;8.138;2023-06-05T02:27:57;13.50;99.90
33994;DHT22;20673;48.980;8.138;2023-06-05T02:30:23;13.40;99.90
33994;DHT22;20673;48.980;8.138;2023-06-05T02:32:51;13.40;99.90
33994;DHT22;20673;48.980;8.138;2023-06-05T02:35:25;13.40;99.90
33994;DHT22;20673;48.980;8.138;2023-06-05T02:37:52;13.40;99.90
33994;DHT22;20673;48.980;8.138;2023-06-05T02:40:18;13.40;99.90
33994;DHT22;20673;48.980;8.138;2023-06-05T02:42:44;13.30;99.90
33994;DHT22;20673;48.980;8.138;2023-06-05T02:45:11;13.30;99.90
33994;DHT22;20673;48.980;8.138;2023-06-05T02:47:37;13.20;99.90
33994;DHT22;20673;48.980;8.138;2023-06-05T02:50:04;13.20;99.90
33994;DHT22;20673;48.980;8.138;2023-06-05T02:52:32;13.10;99.90
33994;DHT22;20673;48.980;8.138;2023-06-05T02:55:05;13.10;99.90
33994;DHT22;20673;48.980;8.138;2023-06-05T02:57:31;13.00;99.90
33994;DHT22;20673;48.980;8.138;2023-06-05T02:59:59;13.00;99.90
33994;DHT22;20673;48.980;8.138;2023-06-05T03:02:27;12.90;99.90
33994;DHT22;20673;48.980;8.138;2023-06-05T03:04:54;12.90;99.90
33994;DHT22;20673;48.980;8.138;2023-06-05T03:07:21;12.90;99.90
33994;DHT22;20673;48.980;8.138;2023-06-05T03:09:48;12.90;99.90
33994;DHT22;20673;48.980;8.138;2023-06-05T03:12:14;12.80;99.90
33994;DHT22;20673;48.980;8.138;2023-06-05T03:14:40;12.80;99.90
33994;DHT22;20673;48.980;8.138;2023-06-05T03:17:06;12.80;99.90
33994;DHT22;20673;48.980;8.138;2023-06-05T03:19:32;12.70;99.90
33994;DHT22;20673;48.980;8.138;2023-06-05T03:21:58;12.80;99.90
33994;DHT22;20673;48.980;8.138;2023-06-05T03:24:24;12.70;99.90
33994;DHT22;20673;48.980;8.138;2023-06-05T03:26:52;12.70;99.90
33994;DHT22;20673;48.980;8.138;2023-06-05T03:29:18;12.70;99.90
33994;DHT22;20673;48.980;8.138;2023-06-05T03:31:45;12.70;99.90
33994;DHT22;20673;48.980;8.138;2023-06-05T03:34:11;12.70;99.90
33994;DHT22;20673;48.980;8.138;2023-06-05T03:36:37;12.70;99.90
33994;DHT22;20673;48.980;8.138;2023-06-05T03:39:05;12.70;99.90
33994;DHT22;20673;48.980;8.138;2023-06-05T03:41:32;12.70;99.90
33994;DHT22;20673;48.980;8.138;2023-06-05T03:43:58;12.60;99.90
33994;DHT22;20673;48.980;8.138;2023-06-05T03:46:24;12.60;99.90
33994;DHT22;20673;48.980;8.138;2023-06-05T03:48:51;12.70;99.90
33994;DHT22;20673;48.980;8.138;2023-06-05T03:51:21;12.70;99.90
33994;DHT22;20673;48.980;8.138;2023-06-05T03:53:48;12.70;99.90
33994;DHT22;20673;48.980;8.138;2023-06-05T03:56:16;12.70;99.90
33994;DHT22;20673;48.980;8.138;2023-06-05T03:58:42;12.70;99.90
33994;DHT22;20673;48.980;8.138;2023-06-05T04:01:10;12.70;99.90
33994;DHT22;20673;48.980;8.138;2023-06-05T04:03:37;12.80;99.90
33994;DHT22;20673;48.980;8.138;2023-06-05T04:06:05;12.70;99.90
33994;DHT22;20673;48.980;8.138;2023-06-05T04:08:31;12.70;99.90
33994;DHT22;20673;48.980;8.138;2023-06-05T04:10:58;12.70;99.90
33994;DHT22;20673;48.980;8.138;2023-06-05T04:13:24;12.70;99.90
33994;DHT22;20673;48.980;8.138;2023-06-05T04:15:51;12.70;99.90
33994;DHT22;20673;48.980;8.138;2023-06-05T04:18:17;12.80;99.90
33994;DHT22;20673;48.980;8.138;2023-06-05T04:20:43;12.80;99.90
33994;DHT22;20673;48.980;8.138;2023-06-05T04:23:09;12.80;99.90
33994;DHT22;20673;48.980;8.138;2023-06-05T04:25:35;12.80;99.90
33994;DHT22;20673;48.980;8.138;2023-06-05T04:28:01;12.90;99.90
33994;DHT22;20673;48.980;8.138;2023-06-05T04:30:28;13.00;99.90
33994;DHT22;20673;48.980;8.138;2023-06-05T04:32:55;13.10;99.90
33994;DHT22;20673;48.980;8.138;2023-06-05T04:35:22;13.10;99.90
33994;DHT22;20673;48.980;8.138;2023-06-05T04:37:48;13.20;99.90
33994;DHT22;20673;48.980;8.138;2023-06-05T04:40:16;13.20;99.90
33994;DHT22;20673;48.980;8.138;2023-06-05T04:42:45;13.20;99.90
33994;DHT22;20673;48.980;8.138;2023-06-05T04:45:11;13.30;99.90
33994;DHT22;20673;48.980;8.138;2023-06-05T04:47:38;13.40;99.90
33994;DHT22;20673;48.980;8.138;2023-06-05T04:50:05;13.50;99.90
33994;DHT22;20673;48.980;8.138;2023-06-05T04:52:32;13.50;99.90
33994;DHT22;20673;48.980;8.138;2023-06-05T04:55:01;13.60;99.90
33994;DHT22;20673;48.980;8.138;2023-06-05T04:57:28;13.70;99.90
33994;DHT22;20673;48.980;8.138;2023-06-05T04:59:55;13.80;99.90
33994;DHT22;20673;48.980;8.138;2023-06-05T05:02:24;13.80;99.90
33994;DHT22;20673;48.980;8.138;2023-06-05T05:04:51;13.90;99.90
33994;DHT22;20673;48.980;8.138;2023-06-05T05:07:18;14.00;99.90
33994;DHT22;20673;48.980;8.138;2023-06-05T05:09:44;14.10;99.90
33994;DHT22;20673;48.980;8.138;2023-06-05T05:12:11;14.20;99.90
33994;DHT22;20673;48.980;8.138;2023-06-05T05:14:38;14.30;99.90
33994;DHT22;20673;48.980;8.138;2023-06-05T05:17:06;14.40;99.90
33994;DHT22;20673;48.980;8.138;2023-06-05T05:19:33;14.50;99.90
33994;DHT22;20673;48.980;8.138;2023-06-05T05:21:59;14.60;99.90
33994;DHT22;20673;48.980;8.138;2023-06-05T05:24:25;14.70;99.90
33994;DHT22;20673;48.980;8.138;2023-06-05T05:26:52;14.70;99.90
33994;DHT22;20673;48.980;8.138;2023-06-05T05:29:18;14.80;99.90
33994;DHT22;20673;48.980;8.138;2023-06-05T05:31:44;14.90;99.90
33994;DHT22;20673;48.980;8.138;2023-06-05T05:34:11;15.00;99.90
33994;DHT22;20673;48.980;8.138;2023-06-05T05:36:37;15.10;99.90
33994;DHT22;20673;48.980;8.138;2023-06-05T05:39:05;15.20;99.90
33994;DHT22;20673;48.980;8.138;2023-06-05T05:41:33;15.30;99.90
33994;DHT22;20673;48.980;8.138;2023-06-05T05:44:00;15.40;99.90
33994;DHT22;20673;48.980;8.138;2023-06-05T05:46:26;15.50;99.90
33994;DHT22;20673;48.980;8.138;2023-06-05T05:48:52;15.60;99.90
33994;DHT22;20673;48.980;8.138;2023-06-05T05:51:20;15.60;99.90
33994;DHT22;20673;48.980;8.138;2023-06-05T05:53:46;15.80;99.90
33994;DHT22;20673;48.980;8.138;2023-06-05T05:56:12;16.00;99.90
33994;DHT22;20673;48.980;8.138;2023-06-05T05:58:38;16.10;99.90
33994;DHT22;20673;48.980;8.138;2023-06-05T06:01:05;16.10;99.90
33994;DHT22;20673;48.980;8.138;2023-06-05T06:03:32;16.10;99.90
33994;DHT22;20673;48.980;8.138;2023-06-05T06:05:59;16.20;99.90
33994;DHT22;20673;48.980;8.138;2023-06-05T06:08:27;16.40;99.90
33994;DHT22;20673;48.980;8.138;2023-06-05T06:10:53;16.50;99.90
33994;DHT22;20673;48.980;8.138;2023-06-05T06:13:20;16.60;99.90
33994;DHT22;20673;48.980;8.138;2023-06-05T06:15:46;16.70;99.90
33994;DHT22;20673;48.980;8.138;2023-06-05T06:18:13;16.80;99.90
33994;DHT22;20673;48.980;8.138;2023-06-05T06:20:39;16.90;99.90
33994;DHT22;20673;48.980;8.138;2023-06-05T06:23:06;17.00;99.90
33994;DHT22;20673;48.980;8.138;2023-06-05T06:25:32;17.20;99.90
33994;DHT22;20673;48.980;8.138;2023-06-05T06:27:59;17.30;99.90
33994;DHT22;20673;48.980;8.138;2023-06-05T06:30:26;17.30;99.90
33994;DHT22;20673;48.980;8.138;2023-06-05T06:32:53;17.40;99.90
33994;DHT22;20673;48.980;8.138;2023-06-05T06:35:26;17.50;99.90
33994;DHT22;20673;48.980;8.138;2023-06-05T06:37:53;17.60;99.90
33994;DHT22;20673;48.980;8.138;2023-06-05T06:40:22;17.70;99.90
33994;DHT22;20673;48.980;8.138;2023-06-05T06:42:49;17.90;99.90
33994;DHT22;20673;48.980;8.138;2023-06-05T06:45:19;18.00;99.90
33994;DHT22;20673;48.980;8.138;2023-06-05T06:47:46;18.20;99.90
33994;DHT22;20673;48.980;8.138;2023-06-05T06:50:13;18.30;99.90
33994;DHT22;20673;48.980;8.138;2023-06-05T06:52:40;18.40;99.90
33994;DHT22;20673;48.980;8.138;2023-06-05T06:55:06;18.40;99.90
33994;DHT22;20673;48.980;8.138;2023-06-05T06:57:33;18.50;99.90
33994;DHT22;20673;48.980;8.138;2023-06-05T06:59:59;18.70;99.90
33994;DHT22;20673;48.980;8.138;2023-06-05T07:02:25;18.80;99.90
33994;DHT22;20673;48.980;8.138;2023-06-05T07:04:51;18.80;99.90
33994;DHT22;20673;48.980;8.138;2023-06-05T07:07:20;18.90;99.90
33994;DHT22;20673;48.980;8.138;2023-06-05T07:09:48;19.00;99.90
33994;DHT22;20673;48.980;8.138;2023-06-05T07:12:19;19.00;99.90
33994;DHT22;20673;48.980;8.138;2023-06-05T07:14:47;19.10;99.90
33994;DHT22;20673;48.980;8.138;2023-06-05T07:17:14;19.30;99.90
33994;DHT22;20673;48.980;8.138;2023-06-05T07:19:40;19.30;99.90
33994;DHT22;20673;48.980;8.138;2023-06-05T07:22:07;19.40;99.90
33994;DHT22;20673;48.980;8.138;2023-06-05T07:24:34;19.50;99.90
33994;DHT22;20673;48.980;8.138;2023-06-05T07:27:03;19.70;99.90
33994;DHT22;20673;48.980;8.138;2023-06-05T07:29:30;19.80;99.90
33994;DHT22;20673;48.980;8.138;2023-06-05T07:31:57;19.80;99.90
33994;DHT22;20673;48.980;8.138;2023-06-05T07:34:25;19.80;99.90
33994;DHT22;20673;48.980;8.138;2023-06-05T07:36:52;19.90;99.90
33994;DHT22;20673;48.980;8.138;2023-06-05T07:39:20;20.00;99.90
33994;DHT22;20673;48.980;8.138;2023-06-05T07:41:47;20.20;99.90
33994;DHT22;20673;48.980;8.138;2023-06-05T07:44:18;20.60;99.90
33994;DHT22;20673;48.980;8.138;2023-06-05T07:46:44;20.70;99.90
33994;DHT22;20673;48.980;8.138;2023-06-05T07:49:12;20.80;99.90
33994;DHT22;20673;48.980;8.138;2023-06-05T07:51:39;21.00;99.90
33994;DHT22;20673;48.980;8.138;2023-06-05T07:54:10;21.10;99.90
33994;DHT22;20673;48.980;8.138;2023-06-05T07:56:38;21.20;99.90
33994;DHT22;20673;48.980;8.138;2023-06-05T07:59:05;21.10;99.90
33994;DHT22;20673;48.980;8.138;2023-06-05T08:01:33;21.30;99.90
33994;DHT22;20673;48.980;8.138;2023-06-05T08:04:09;21.40;99.90
33994;DHT22;20673;48.980;8.138;2023-06-05T08:06:33;21.60;99.90
33994;DHT22;20673;48.980;8.138;2023-06-05T08:09:01;21.80;99.90
33994;DHT22;20673;48.980;8.138;2023-06-05T08:11:28;21.90;99.90
33994;DHT22;20673;48.980;8.138;2023-06-05T08:13:54;21.80;99.90
33994;DHT22;20673;48.980;8.138;2023-06-05T08:16:21;21.80;99.90
33994;DHT22;20673;48.980;8.138;2023-06-05T08:18:47;22.00;99.90
33994;DHT22;20673;48.980;8.138;2023-06-05T08:21:14;22.10;99.90
33994;DHT22;20673;48.980;8.138;2023-06-05T08:23:40;22.10;99.90
33994;DHT22;20673;48.980;8.138;2023-06-05T08:26:06;22.40;99.90
33994;DHT22;20673;48.980;8.138;2023-06-05T08:28:34;22.50;99.90
33994;DHT22;20673;48.980;8.138;2023-06-05T08:31:00;22.40;99.90
33994;DHT22;20673;48.980;8.138;2023-06-05T08:33:26;22.70;99.90
33994;DHT22;20673;48.980;8.138;2023-06-05T08:35:52;22.90;99.90
33994;DHT22;20673;48.980;8.138;2023-06-05T08:38:18;23.10;99.90
33994;DHT22;20673;48.980;8.138;2023-06-05T08:40:45;23.30;99.90
33994;DHT22;20673;48.980;8.138;2023-06-05T08:43:13;23.50;99.90
33994;DHT22;20673;48.980;8.138;2023-06-05T08:45:39;23.50;99.90
33994;DHT22;20673;48.980;8.138;2023-06-05T08:48:05;23.60;99.90
33994;DHT22;20673;48.980;8.138;2023-06-05T08:50:36;23.70;99.60
33994;DHT22;20673;48.980;8.138;2023-06-05T08:53:04;23.90;99.90
33994;DHT22;20673;48.980;8.138;2023-06-05T08:55:31;24.10;99.20
33994;DHT22;20673;48.980;8.138;2023-06-05T08:57:58;24.00;98.90
33994;DHT22;20673;48.980;8.138;2023-06-05T09:00:25;24.20;99.90
33994;DHT22;20673;48.980;8.138;2023-06-05T09:02:51;24.40;98.70
33994;DHT22;20673;48.980;8.138;2023-06-05T09:05:17;24.40;98.20
33994;DHT22;20673;48.980;8.138;2023-06-05T09:07:44;24.60;97.70
33994;DHT22;20673;48.980;8.138;2023-06-05T09:12:55;24.90;98.00
33994;DHT22;20673;48.980;8.138;2023-06-05T09:15:29;25.00;98.20
33994;DHT22;20673;48.980;8.138;2023-06-05T09:18:13;25.00;98.10
33994;DHT22;20673;48.980;8.138;2023-06-05T09:20:40;25.20;98.80
33994;DHT22;20673;48.980;8.138;2023-06-05T09:23:28;25.50;96.00
33994;DHT22;20673;48.980;8.138;2023-06-05T09:25:57;25.60;99.40
33994;DHT22;20673;48.980;8.138;2023-06-05T09:28:24;25.80;96.50
33994;DHT22;20673;48.980;8.138;2023-06-05T09:30:57;25.60;96.40
33994;DHT22;20673;48.980;8.138;2023-06-05T09:33:32;25.60;94.50
33994;DHT22;20673;48.980;8.138;2023-06-05T09:36:08;25.60;97.10
33994;DHT22;20673;48.980;8.138;2023-06-05T09:38:37;25.80;97.70
33994;DHT22;20673;48.980;8.138;2023-06-05T09:41:10;25.90;96.20
33994;DHT22;20673;48.980;8.138;2023-06-05T09:43:39;26.30;97.70
33994;DHT22;20673;48.980;8.138;2023-06-05T09:46:07;26.60;94.60
33994;DHT22;20673;48.980;8.138;2023-06-05T09:48:34;26.70;94.90
33994;DHT22;20673;48.980;8.138;2023-06-05T09:51:12;26.50;93.90
33994;DHT22;20673;48.980;8.138;2023-06-05T09:53:45;26.40;93.70
33994;DHT22;20673;48.980;8.138;2023-06-05T09:56:17;26.60;94.70
33994;DHT22;20673;48.980;8.138;2023-06-05T09:58:51;26.80;95.70
33994;DHT22;20673;48.980;8.138;2023-06-05T10:01:18;26.80;94.90
33994;DHT22;20673;48.980;8.138;2023-06-05T10:03:51;27.00;95.70
33994;DHT22;20673;48.980;8.138;2023-06-05T10:06:28;27.40;94.40
33994;DHT22;20673;48.980;8.138;2023-06-05T10:08:54;27.50;95.20
33994;DHT22;20673;48.980;8.138;2023-06-05T10:11:26;27.50;94.50
33994;DHT22;20673;48.980;8.138;2023-06-05T10:13:53;27.60;94.10
33994;DHT22;20673;48.980;8.138;2023-06-05T10:16:20;27.70;96.60
33994;DHT22;20673;48.980;8.138;2023-06-05T10:18:48;27.80;96.60
33994;DHT22;20673;48.980;8.138;2023-06-05T10:21:16;28.20;94.30
33994;DHT22;20673;48.980;8.138;2023-06-05T10:23:46;28.20;93.30
33994;DHT22;20673;48.980;8.138;2023-06-05T10:35:10;28.50;94.00
33994;DHT22;20673;48.980;8.138;2023-06-05T10:37:52;28.50;92.40
33994;DHT22;20673;48.980;8.138;2023-06-05T10:40:35;28.80;95.10
33994;DHT22;20673;48.980;8.138;2023-06-05T10:43:31;28.80;91.70
33994;DHT22;20673;48.980;8.138;2023-06-05T10:46:00;29.20;92.40
33994;DHT22;20673;48.980;8.138;2023-06-05T10:51:45;29.20;91.30
33994;DHT22;20673;48.980;8.138;2023-06-05T10:57:01;29.30;91.60
33994;DHT22;20673;48.980;8.138;2023-06-05T10:59:33;29.50;92.20
33994;DHT22;20673;48.980;8.138;2023-06-05T11:07:20;30.00;90.70
33994;DHT22;20673;48.980;8.138;2023-06-05T11:10:05;30.00;87.90
33994;DHT22;20673;48.980;8.138;2023-06-05T11:17:47;29.70;90.50
33994;DHT22;20673;48.980;8.138;2023-06-05T11:25:28;29.80;88.50
33994;DHT22;20673;48.980;8.138;2023-06-05T11:28:02;29.70;84.90
33994;DHT22;20673;48.980;8.138;2023-06-05T11:30:45;30.00;85.50
33994;DHT22;20673;48.980;8.138;2023-06-05T11:33:16;30.50;83.50
33994;DHT22;20673;48.980;8.138;2023-06-05T11:35:46;30.50;80.10
33994;DHT22;20673;48.980;8.138;2023-06-05T11:38:17;30.70;86.30
33994;DHT22;20673;48.980;8.138;2023-06-05T11:40:47;30.00;83.90
33994;DHT22;20673;48.980;8.138;2023-06-05T11:43:14;30.70;87.00
33994;DHT22;20673;48.980;8.138;2023-06-05T11:45:48;31.20;79.80
33994;DHT22;20673;48.980;8.138;2023-06-05T11:48:20;31.20;78.80
33994;DHT22;20673;48.980;8.138;2023-06-05T11:51:00;30.90;75.80
33994;DHT22;20673;48.980;8.138;2023-06-05T11:53:30;31.20;75.50
33994;DHT22;20673;48.980;8.138;2023-06-05T11:55:57;31.30;66.30
33994;DHT22;20673;48.980;8.138;2023-06-05T11:58:34;31.50;76.00
33994;DHT22;20673;48.980;8.138;2023-06-05T12:01:17;30.90;71.40
33994;DHT22;20673;48.980;8.138;2023-06-05T12:03:46;30.00;71.60
33994;DHT22;20673;48.980;8.138;2023-06-05T12:06:12;29.80;71.10
33994;DHT22;20673;48.980;8.138;2023-06-05T12:08:40;29.30;75.90
33994;DHT22;20673;48.980;8.138;2023-06-05T12:11:21;29.80;77.40
33994;DHT22;20673;48.980;8.138;2023-06-05T12:13:58;30.20;72.90
33994;DHT22;20673;48.980;8.138;2023-06-05T12:16:35;30.80;67.30
33994;DHT22;20673;48.980;8.138;2023-06-05T12:19:11;30.90;70.40
33994;DHT22;20673;48.980;8.138;2023-06-05T12:21:39;30.40;67.30
33994;DHT22;20673;48.980;8.138;2023-06-05T12:24:06;30.90;62.60
33994;DHT22;20673;48.980;8.138;2023-06-05T12:26:53;31.10;69.50
33994;DHT22;20673;48.980;8.138;2023-06-05T12:29:34;31.40;64.00
33994;DHT22;20673;48.980;8.138;2023-06-05T12:32:18;31.80;58.00
33994;DHT22;20673;48.980;8.138;2023-06-05T12:34:48;31.90;62.90
33994;DHT22;20673;48.980;8.138;2023-06-05T12:37:29;31.70;61.80
33994;DHT22;20673;48.980;8.138;2023-06-05T12:40:09;32.00;62.90
33994;DHT22;20673;48.980;8.138;2023-06-05T12:42:38;32.30;62.30
33994;DHT22;20673;48.980;8.138;2023-06-05T12:45:08;32.00;62.90
33994;DHT22;20673;48.980;8.138;2023-06-05T12:47:36;32.40;56.70
33994;DHT22;20673;48.980;8.138;2023-06-05T12:50:04;32.10;53.80
33994;DHT22;20673;48.980;8.138;2023-06-05T12:52:33;31.20;54.20
33994;DHT22;20673;48.980;8.138;2023-06-05T12:55:00;31.40;57.40
33994;DHT22;20673;48.980;8.138;2023-06-05T12:57:26;31.40;57.50
33994;DHT22;20673;48.980;8.138;2023-06-05T12:59:53;31.60;59.50
33994;DHT22;20673;48.980;8.138;2023-06-05T13:02:21;32.10;53.00
33994;DHT22;20673;48.980;8.138;2023-06-05T13:04:47;31.80;53.50
33994;DHT22;20673;48.980;8.138;2023-06-05T13:07:14;32.00;52.90
33994;DHT22;20673;48.980;8.138;2023-06-05T13:09:42;32.30;50.80
33994;DHT22;20673;48.980;8.138;2023-06-05T13:12:08;32.60;49.40
33994;DHT22;20673;48.980;8.138;2023-06-05T13:14:34;32.60;49.30
33994;DHT22;20673;48.980;8.138;2023-06-05T13:17:00;32.00;49.30
33994;DHT22;20673;48.980;8.138;2023-06-05T13:19:27;31.10;46.60
33994;DHT22;20673;48.980;8.138;2023-06-05T13:21:53;30.40;46.80
33994;DHT22;20673;48.980;8.138;2023-06-05T13:24:19;30.50;52.00
33994;DHT22;20673;48.980;8.138;2023-06-05T13:26:45;30.80;47.50
33994;DHT22;20673;48.980;8.138;2023-06-05T13:29:12;31.20;50.50
33994;DHT22;20673;48.980;8.138;2023-06-05T13:31:40;31.40;46.70
33994;DHT22;20673;48.980;8.138;2023-06-05T13:34:06;31.80;49.90
33994;DHT22;20673;48.980;8.138;2023-06-05T13:36:32;31.80;49.00
33994;DHT22;20673;48.980;8.138;2023-06-05T13:38:59;31.80;46.00
33994;DHT22;20673;48.980;8.138;2023-06-05T13:41:25;31.70;49.00
33994;DHT22;20673;48.980;8.138;2023-06-05T13:43:51;31.80;49.80
33994;DHT22;20673;48.980;8.138;2023-06-05T13:46:17;32.10;46.60
33994;DHT22;20673;48.980;8.138;2023-06-05T13:48:44;32.30;46.90
33994;DHT22;20673;48.980;8.138;2023-06-05T13:51:10;32.50;43.90
33994;DHT22;20673;48.980;8.138;2023-06-05T13:53:36;32.30;45.00
33994;DHT22;20673;48.980;8.138;2023-06-05T13:56:06;32.20;44.10
33994;DHT22;20673;48.980;8.138;2023-06-05T13:58:32;32.30;44.20
33994;DHT22;20673;48.980;8.138;2023-06-05T14:00:59;31.80;43.80
33994;DHT22;20673;48.980;8.138;2023-06-05T14:03:26;32.30;44.80
33994;DHT22;20673;48.980;8.138;2023-06-05T14:05:52;32.30;42.30
33994;DHT22;20673;48.980;8.138;2023-06-05T14:08:19;32.20;42.50
33994;DHT22;20673;48.980;8.138;2023-06-05T14:10:46;32.50;39.90
33994;DHT22;20673;48.980;8.138;2023-06-05T14:13:12;32.10;42.20
33994;DHT22;20673;48.980;8.138;2023-06-05T14:15:39;32.80;42.50
33994;DHT22;20673;48.980;8.138;2023-06-05T14:18:06;32.40;40.30
33994;DHT22;20673;48.980;8.138;2023-06-05T14:20:33;32.60;37.40
33994;DHT22;20673;48.980;8.138;2023-06-05T14:23:00;32.60;38.30
33994;DHT22;20673;48.980;8.138;2023-06-05T14:25:29;32.60;38.00
33994;DHT22;20673;48.980;8.138;2023-06-05T14:27:56;32.60;39.20
33994;DHT22;20673;48.980;8.138;2023-06-05T14:30:24;32.60;39.80
33994;DHT22;20673;48.980;8.138;2023-06-05T14:32:53;32.90;39.60
33994;DHT22;20673;48.980;8.138;2023-06-05T14:35:19;32.90;36.20
33994;DHT22;20673;48.980;8.138;2023-06-05T14:37:46;33.10;38.70
33994;DHT22;20673;48.980;8.138;2023-06-05T14:40:12;33.10;35.40
33994;DHT22;20673;48.980;8.138;2023-06-05T14:42:38;33.40;35.40
33994;DHT22;20673;48.980;8.138;2023-06-05T14:45:06;32.80;36.00
33994;DHT22;20673;48.980;8.138;2023-06-05T14:47:32;32.60;35.00
33994;DHT22;20673;48.980;8.138;2023-06-05T14:49:58;32.10;33.00
33994;DHT22;20673;48.980;8.138;2023-06-05T14:52:25;32.10;33.20
33994;DHT22;20673;48.980;8.138;2023-06-05T14:54:51;32.40;33.40
33994;DHT22;20673;48.980;8.138;2023-06-05T14:57:17;32.00;36.00
33994;DHT22;20673;48.980;8.138;2023-06-05T14:59:43;32.00;33.60
33994;DHT22;20673;48.980;8.138;2023-06-05T15:02:10;32.20;35.40
33994;DHT22;20673;48.980;8.138;2023-06-05T15:04:36;32.10;37.20
33994;DHT22;20673;48.980;8.138;2023-06-05T15:07:02;32.10;34.50
33994;DHT22;20673;48.980;8.138;2023-06-05T15:09:28;32.00;37.10
33994;DHT22;20673;48.980;8.138;2023-06-05T15:11:55;32.20;34.10
33994;DHT22;20673;48.980;8.138;2023-06-05T15:14:22;32.70;35.40
33994;DHT22;20673;48.980;8.138;2023-06-05T15:16:49;32.70;33.80
33994;DHT22;20673;48.980;8.138;2023-06-05T15:19:16;32.50;32.90
33994;DHT22;20673;48.980;8.138;2023-06-05T15:21:42;32.30;35.60
33994;DHT22;20673;48.980;8.138;2023-06-05T15:24:08;32.20;34.50
33994;DHT22;20673;48.980;8.138;2023-06-05T15:26:35;32.20;34.20
33994;DHT22;20673;48.980;8.138;2023-06-05T15:29:01;32.10;33.80
33994;DHT22;20673;48.980;8.138;2023-06-05T15:31:27;31.90;36.40
33994;DHT22;20673;48.980;8.138;2023-06-05T15:33:53;32.20;34.60
33994;DHT22;20673;48.980;8.138;2023-06-05T15:36:19;32.30;33.10
33994;DHT22;20673;48.980;8.138;2023-06-05T15:38:45;31.70;35.70
33994;DHT22;20673;48.980;8.138;2023-06-05T15:41:12;31.60;34.20
33994;DHT22;20673;48.980;8.138;2023-06-05T15:43:39;31.40;36.00
33994;DHT22;20673;48.980;8.138;2023-06-05T15:46:05;31.60;35.10
33994;DHT22;20673;48.980;8.138;2023-06-05T15:48:31;31.60;35.50
33994;DHT22;20673;48.980;8.138;2023-06-05T15:50:58;31.70;35.70
33994;DHT22;20673;48.980;8.138;2023-06-05T15:53:25;31.60;35.20
33994;DHT22;20673;48.980;8.138;2023-06-05T15:55:51;31.40;32.50
33994;DHT22;20673;48.980;8.138;2023-06-05T15:58:17;31.60;33.20
33994;DHT22;20673;48.980;8.138;2023-06-05T16:00:43;31.30;32.70
33994;DHT22;20673;48.980;8.138;2023-06-05T16:03:09;31.90;32.90
33994;DHT22;20673;48.980;8.138;2023-06-05T16:05:37;31.80;31.90
33994;DHT22;20673;48.980;8.138;2023-06-05T16:08:05;32.10;30.20
33994;DHT22;20673;48.980;8.138;2023-06-05T16:10:32;32.00;31.10